Time;durP1;ratioP1;P1;durP2;ratioP2;P2;SDS_P1;SDS_P2;PMS_P1;PMS_P2;Temp;Humidity;BMP_temperature;BMP_pressure;BME280_temperature;BME280_humidity;BME280_pressure;Samples;Min_cycle;Max_cycle;Signal;HPM_P1;HPM_P2
2021/03/28 00:01:39;;;;;;;0.32;0.32;;;4.10;99.90;;;;;;4415409;32;20090;-75
2021/03/28 00:04:10;;;;;;;0.40;0.40;;;4.10;99.90;;;;;;4415782;32;20141;-74
2021/03/28 00:06:54;;;;;;;0.40;0.40;;;4.10;99.90;;;;;;4415590;32;20061;-74
2021/03/28 00:09:27;;;;;;;0.30;0.30;;;4.00;99.90;;;;;;4413001;32;20511;-74
2021/03/28 00:11:56;;;;;;;2.22;0.80;;;4.10;99.90;;;;;;4400860;32;20447;-74
2021/03/28 00:14:57;;;;;;;1.05;0.95;;;4.10;99.90;;;;;;4401376;32;20161;-74
2021/03/28 00:17:29;;;;;;;0.30;0.30;;;4.10;99.90;;;;;;4401127;32;20294;-74
2021/03/28 00:20:04;;;;;;;0.40;0.40;;;4.20;99.90;;;;;;4400856;32;20102;-74
2021/03/28 00:22:34;;;;;;;0.40;0.40;;;4.10;99.90;;;;;;4400392;32;20129;-74
2021/03/28 00:25:12;;;;;;;0.30;0.30;;;4.10;99.90;;;;;;4399715;32;20087;-74
2021/03/28 00:27:42;;;;;;;0.65;0.65;;;4.00;99.90;;;;;;4401106;32;20109;-74
2021/03/28 00:30:26;;;;;;;0.40;0.40;;;4.10;99.90;;;;;;4399934;32;20074;-75
2021/03/28 00:32:59;;;;;;;4.32;2.03;;;4.10;99.90;;;;;;4400293;32;20123;-74
2021/03/28 00:35:30;;;;;;;0.50;0.50;;;4.10;99.90;;;;;;4420760;27;20101;-76
2021/03/28 00:38:15;;;;;;;0.70;0.70;;;4.10;99.90;;;;;;4413592;32;20053;-76
2021/03/28 00:40:42;;;;;;;0.45;0.45;;;4.20;99.90;;;;;;4414336;32;20086;-76
2021/03/28 00:43:20;;;;;;;0.40;0.40;;;4.20;99.90;;;;;;4413879;32;20073;-76
2021/03/28 00:45:57;;;;;;;0.50;0.50;;;4.10;99.90;;;;;;4429979;27;20102;-74
2021/03/28 00:48:28;;;;;;;0.35;0.35;;;4.00;99.90;;;;;;4415282;32;20514;-74
2021/03/28 00:51:07;;;;;;;0.40;0.40;;;3.90;99.90;;;;;;4403101;32;20132;-75
2021/03/28 00:53:38;;;;;;;0.40;0.40;;;3.90;99.90;;;;;;4416066;27;20089;-75
2021/03/28 00:56:28;;;;;;;0.55;0.55;;;3.90;99.90;;;;;;4413993;32;20070;-76
2021/03/28 00:59:02;;;;;;;0.70;0.70;;;3.80;99.90;;;;;;4401982;32;20120;-75
2021/03/28 01:01:32;;;;;;;3.62;0.95;;;4.10;99.90;;;;;;4414105;32;20121;-75
2021/03/28 01:04:08;;;;;;;0.82;0.82;;;4.00;99.90;;;;;;4413600;32;20220;-75
2021/03/28 01:06:48;;;;;;;0.50;0.50;;;4.00;99.90;;;;;;4413106;32;20128;-75
2021/03/28 01:09:27;;;;;;;1.70;0.90;;;4.00;99.90;;;;;;4413451;32;20066;-75
2021/03/28 01:12:07;;;;;;;0.30;0.30;;;3.90;99.90;;;;;;4413293;32;20154;-75
2021/03/28 01:14:46;;;;;;;0.40;0.40;;;3.80;99.90;;;;;;4412937;32;20065;-75
2021/03/28 01:17:27;;;;;;;0.40;0.40;;;3.80;99.90;;;;;;4413924;32;20507;-76
2021/03/28 01:20:03;;;;;;;0.80;0.80;;;3.80;99.90;;;;;;4412876;32;20127;-76
2021/03/28 01:22:49;;;;;;;0.43;0.43;;;3.80;99.90;;;;;;4413825;32;20057;-76
2021/03/28 01:25:41;;;;;;;44.70;1.30;;;3.70;99.90;;;;;;4412798;32;20518;-76
2021/03/28 01:28:20;;;;;;;0.30;0.30;;;3.70;99.90;;;;;;4402935;32;20066;-76
2021/03/28 01:30:50;;;;;;;0.30;0.30;;;3.70;99.90;;;;;;4413305;32;20061;-76
2021/03/28 01:33:22;;;;;;;;;;;3.70;99.90;;;;;;4414665;32;20057;-76
2021/03/28 01:36:04;;;;;;;0.40;0.40;;;3.70;99.90;;;;;;4412874;32;19956;-76
2021/03/28 01:38:37;;;;;;;0.70;0.70;;;3.60;99.90;;;;;;4412930;32;20564;-76
2021/03/28 01:41:10;;;;;;;0.40;0.40;;;3.70;99.90;;;;;;4413899;32;20505;-76
2021/03/28 01:44:00;;;;;;;0.50;0.50;;;3.70;99.90;;;;;;4414127;32;20061;-76
2021/03/28 01:46:53;;;;;;;1.03;1.03;;;3.70;99.90;;;;;;4390359;32;20483;-76
2021/03/28 01:49:43;;;;;;;0.37;0.37;;;3.70;99.90;;;;;;4386460;32;20125;-76
2021/03/28 01:52:49;;;;;;;1.48;1.27;;;3.60;99.90;;;;;;4386762;32;20082;-76
2021/03/28 01:55:30;;;;;;;0.60;0.60;;;3.70;99.90;;;;;;4377012;32;20083;-76
2021/03/28 01:58:36;;;;;;;0.30;0.30;;;3.70;99.90;;;;;;4397886;32;20409;-76
2021/03/28 02:01:26;;;;;;;0.50;0.50;;;3.70;99.90;;;;;;4378002;32;20150;-76
2021/03/28 02:04:03;;;;;;;0.40;0.40;;;3.70;99.90;;;;;;4398066;32;20061;-76
2021/03/28 02:07:02;;;;;;;0.52;0.47;;;3.70;99.90;;;;;;4397878;32;20070;-76
2021/03/28 02:09:51;;;;;;;0.60;0.60;;;3.60;99.90;;;;;;4393929;32;20062;-76
2021/03/28 02:12:34;;;;;;;0.43;0.43;;;3.50;99.90;;;;;;4372553;32;20058;-76
2021/03/28 02:15:36;;;;;;;4.30;0.88;;;3.50;99.90;;;;;;4382659;32;20547;-76
2021/03/28 02:18:17;;;;;;;59.50;1.80;;;3.50;99.90;;;;;;4374391;32;20062;-76
2021/03/28 02:20:54;;;;;;;0.40;0.40;;;3.60;99.90;;;;;;4382172;32;20111;-76
2021/03/28 02:23:45;;;;;;;0.40;0.40;;;3.60;99.90;;;;;;4382801;32;20094;-76
2021/03/28 02:26:27;;;;;;;0.52;0.52;;;3.60;99.90;;;;;;4371208;32;20138;-76
2021/03/28 02:29:07;;;;;;;0.40;0.40;;;3.70;99.90;;;;;;4383323;32;20801;-76
2021/03/28 02:31:57;;;;;;;0.30;0.30;;;3.60;99.90;;;;;;4382260;32;20579;-76
2021/03/28 02:34:29;;;;;;;0.40;0.40;;;3.60;99.90;;;;;;4372327;32;20503;-76
2021/03/28 02:37:25;;;;;;;2.53;0.70;;;3.70;99.90;;;;;;4383172;32;20087;-76
2021/03/28 02:39:56;;;;;;;0.40;0.40;;;3.50;99.90;;;;;;4371176;32;20110;-76
2021/03/28 02:42:30;;;;;;;0.30;0.30;;;3.70;99.90;;;;;;4382506;32;20062;-76
2021/03/28 02:45:18;;;;;;;0.30;0.30;;;3.70;99.90;;;;;;4383133;32;20070;-76
2021/03/28 02:48:23;;;;;;;0.73;0.73;;;3.70;99.90;;;;;;4371450;32;20495;-76
2021/03/28 02:51:11;;;;;;;0.37;0.37;;;3.60;99.90;;;;;;4370837;32;20149;-76
2021/03/28 02:54:03;;;;;;;1.30;1.20;;;3.40;99.90;;;;;;4371487;32;20090;-76
2021/03/28 02:56:51;;;;;;;0.30;0.30;;;3.50;99.90;;;;;;4382723;32;20074;-76
2021/03/28 02:59:41;;;;;;;0.30;0.30;;;3.60;99.90;;;;;;4372016;32;20076;-76
2021/03/28 03:02:35;;;;;;;0.37;0.37;;;3.60;99.90;;;;;;4374533;32;20424;-76
2021/03/28 03:05:05;;;;;;;0.30;0.30;;;3.50;99.90;;;;;;4374782;32;20070;-76
2021/03/28 03:07:53;;;;;;;0.60;0.60;;;3.20;99.90;;;;;;4384582;32;20062;-76
2021/03/28 03:10:36;;;;;;;0.30;0.30;;;3.30;99.90;;;;;;4381859;32;20132;-76
2021/03/28 03:13:41;;;;;;;0.40;0.40;;;3.20;99.90;;;;;;4399845;32;20069;-76
2021/03/28 03:16:17;;;;;;;0.45;0.45;;;3.20;99.90;;;;;;4380857;32;20534;-76
2021/03/28 03:19:03;;;;;;;0.40;0.40;;;3.20;99.90;;;;;;4399711;32;20070;-76
2021/03/28 03:21:35;;;;;;;0.95;0.95;;;3.20;99.90;;;;;;4388351;32;20086;-76
2021/03/28 03:24:09;;;;;;;0.52;0.52;;;3.20;99.90;;;;;;4400166;32;20065;-76
2021/03/28 03:27:08;;;;;;;0.30;0.30;;;3.20;99.90;;;;;;4398531;32;20062;-76
2021/03/28 03:29:51;;;;;;;0.40;0.40;;;3.20;99.90;;;;;;4389464;32;20066;-76
2021/03/28 03:32:38;;;;;;;0.40;0.40;;;3.30;99.90;;;;;;4399377;32;20070;-76
2021/03/28 03:35:25;;;;;;;0.30;0.30;;;3.50;99.90;;;;;;4388236;32;20126;-76
2021/03/28 03:37:53;;;;;;;0.43;0.43;;;3.40;99.90;;;;;;4387809;32;20396;-76
2021/03/28 03:40:49;;;;;;;1.77;0.62;;;3.00;99.90;;;;;;4399857;32;20368;-76
2021/03/28 03:43:38;;;;;;;0.95;0.73;;;3.00;99.90;;;;;;4389400;32;20113;-76
2021/03/28 03:46:07;;;;;;;1.00;0.82;;;3.10;99.90;;;;;;4388320;32;20066;-76
2021/03/28 03:49:02;;;;;;;0.30;0.30;;;3.20;99.90;;;;;;4399021;32;20416;-76
2021/03/28 03:51:56;;;;;;;0.40;0.40;;;3.30;99.90;;;;;;4387634;32;20090;-76
2021/03/28 03:55:01;;;;;;;0.35;0.35;;;3.30;99.90;;;;;;4388268;32;20077;-76
2021/03/28 03:57:29;;;;;;;0.40;0.40;;;3.20;99.90;;;;;;4379999;32;20081;-76
2021/03/28 04:00:12;;;;;;;0.40;0.40;;;3.30;99.90;;;;;;4400564;32;20065;-76
2021/03/28 04:03:04;;;;;;;10.95;0.98;;;3.30;99.90;;;;;;4399471;32;20090;-76
2021/03/28 04:05:47;;;;;;;0.40;0.40;;;3.20;99.90;;;;;;4388795;32;20065;-76
2021/03/28 04:08:43;;;;;;;0.50;0.50;;;3.20;99.90;;;;;;4398715;32;20082;-76
2021/03/28 04:11:48;;;;;;;0.50;0.50;;;3.20;99.90;;;;;;4376055;32;20122;-76
2021/03/28 04:14:39;;;;;;;0.40;0.40;;;3.20;99.90;;;;;;4373901;32;20099;-76
2021/03/28 04:17:33;;;;;;;0.57;0.57;;;3.10;99.90;;;;;;4373834;32;20066;-76
2021/03/28 04:20:20;;;;;;;0.50;0.50;;;3.10;99.90;;;;;;4372571;32;20433;-76
2021/03/28 04:23:11;;;;;;;8.18;0.45;;;3.20;99.90;;;;;;4373517;32;20532;-76
2021/03/28 04:25:43;;;;;;;0.40;0.40;;;3.10;99.90;;;;;;4383036;32;20122;-76
2021/03/28 04:28:22;;;;;;;0.40;0.40;;;3.10;99.90;;;;;;4383412;32;20520;-76
2021/03/28 04:31:25;;;;;;;0.40;0.40;;;3.00;99.90;;;;;;4384123;32;20078;-76
2021/03/28 04:34:07;;;;;;;2.85;1.10;;;3.00;99.90;;;;;;4374280;32;20086;-76
2021/03/28 04:36:50;;;;;;;0.50;0.50;;;3.00;99.90;;;;;;4382928;32;20170;-76
2021/03/28 04:39:45;;;;;;;0.50;0.50;;;2.90;99.90;;;;;;4383669;32;20527;-76
2021/03/28 04:42:50;;;;;;;0.47;0.47;;;2.70;99.90;;;;;;4373203;32;20082;-76
2021/03/28 04:45:38;;;;;;;4.07;1.40;;;2.80;99.90;;;;;;4372839;32;20069;-75
2021/03/28 04:48:09;;;;;;;0.30;0.30;;;2.90;99.90;;;;;;4372468;32;20071;-76
2021/03/28 04:50:44;;;;;;;0.30;0.30;;;2.90;99.90;;;;;;4369343;32;20417;-76
2021/03/28 04:53:39;;;;;;;0.65;0.65;;;2.80;99.90;;;;;;4383858;32;20074;-76
2021/03/28 04:56:44;;;;;;;0.35;0.35;;;2.80;99.90;;;;;;4372185;32;20194;-75
2021/03/28 04:59:15;;;;;;;0.30;0.30;;;2.80;99.90;;;;;;4372451;32;20074;-76
2021/03/28 05:02:02;;;;;;;0.70;0.65;;;2.90;99.90;;;;;;4383100;32;20062;-75
2021/03/28 05:04:36;;;;;;;0.60;0.60;;;2.90;99.90;;;;;;4383148;32;20069;-76
2021/03/28 05:07:24;;;;;;;0.50;0.50;;;3.00;99.90;;;;;;4382991;32;20082;-75
2021/03/28 05:10:12;;;;;;;0.95;0.90;;;3.00;99.90;;;;;;4377874;32;20066;-75
2021/03/28 05:12:59;;;;;;;0.68;0.68;;;3.00;99.90;;;;;;4386618;32;20106;-75
2021/03/28 05:15:59;;;;;;;0.93;0.93;;;3.10;99.90;;;;;;4387782;32;20554;-75
2021/03/28 05:19:04;;;;;;;19.37;1.20;;;3.00;99.90;;;;;;4386931;32;20134;-75
2021/03/28 05:22:09;;;;;;;0.30;0.30;;;3.00;99.90;;;;;;4378624;32;20500;-76
2021/03/28 05:24:53;;;;;;;0.40;0.40;;;2.90;99.90;;;;;;4378201;32;20078;-76
2021/03/28 05:27:37;;;;;;;0.57;0.57;;;3.00;99.90;;;;;;4397594;32;20078;-76
2021/03/28 05:30:38;;;;;;;0.40;0.40;;;2.90;99.90;;;;;;4397890;32;20076;-76
2021/03/28 05:33:23;;;;;;;;;;;2.90;99.90;;;;;;4388642;32;20066;-76
2021/03/28 05:36:18;;;;;;;0.30;0.30;;;2.90;99.90;;;;;;4387249;32;20004;-76
2021/03/28 05:39:04;;;;;;;1.10;0.95;;;2.80;99.90;;;;;;4387655;32;20070;-76
2021/03/28 05:41:59;;;;;;;0.30;0.30;;;2.90;99.90;;;;;;4397955;32;20463;-76
2021/03/28 05:44:48;;;;;;;0.40;0.40;;;2.90;99.90;;;;;;4388602;32;20414;-76
2021/03/28 05:47:34;;;;;;;0.50;0.50;;;3.00;99.90;;;;;;4397890;32;20055;-75
2021/03/28 05:50:25;;;;;;;0.40;0.40;;;3.00;99.90;;;;;;4398154;32;20129;-75
2021/03/28 05:53:20;;;;;;;0.50;0.50;;;3.10;99.90;;;;;;4387554;32;20158;-76
2021/03/28 05:56:07;;;;;;;0.55;0.55;;;3.20;99.90;;;;;;4398018;32;20128;-76
2021/03/28 05:59:12;;;;;;;0.40;0.40;;;3.30;99.90;;;;;;4385999;32;20069;-76
2021/03/28 06:02:15;;;;;;;0.40;0.40;;;3.30;99.90;;;;;;4378072;32;20078;-76
2021/03/28 06:05:17;;;;;;;0.40;0.40;;;3.50;99.90;;;;;;4389682;32;20070;-76
2021/03/28 06:08:11;;;;;;;0.73;0.73;;;3.50;99.90;;;;;;4385802;32;20532;-77
2021/03/28 06:11:02;;;;;;;0.30;0.30;;;3.50;99.90;;;;;;4386693;32;20082;-76
2021/03/28 06:14:07;;;;;;;0.50;0.50;;;3.50;99.90;;;;;;4383098;32;20121;-76
2021/03/28 06:17:12;;;;;;;0.95;0.90;;;3.60;99.90;;;;;;4372941;32;20514;-76
2021/03/28 06:19:57;;;;;;;0.77;0.43;;;3.60;99.90;;;;;;4371254;32;20062;-77
2021/03/28 06:22:55;;;;;;;0.40;0.40;;;3.80;99.90;;;;;;4383168;32;20059;-76
2021/03/28 06:25:54;;;;;;;1.02;0.95;;;3.80;99.90;;;;;;4371828;32;20142;-76
2021/03/28 06:28:53;;;;;;;0.40;0.40;;;3.90;99.90;;;;;;4372659;32;20062;-76
2021/03/28 06:31:32;;;;;;;0.40;0.40;;;3.90;99.90;;;;;;4372792;32;20103;-76
2021/03/28 06:34:34;;;;;;;0.40;0.40;;;4.00;99.90;;;;;;4383209;32;20136;-76
2021/03/28 06:37:26;;;;;;;0.47;0.47;;;4.00;99.90;;;;;;4384833;32;20514;-76
2021/03/28 06:40:37;;;;;;;9.80;1.35;;;4.00;99.90;;;;;;4385216;32;20324;-76
2021/03/28 06:43:31;;;;;;;0.50;0.50;;;4.10;99.90;;;;;;4369319;32;20066;-77
2021/03/28 06:46:25;;;;;;;0.40;0.40;;;4.20;99.90;;;;;;4375559;32;20054;-76
2021/03/28 06:49:19;;;;;;;0.80;0.62;;;4.30;99.90;;;;;;4375016;32;20062;-76
2021/03/28 06:52:24;;;;;;;0.50;0.50;;;4.30;99.90;;;;;;4374543;32;20086;-76
2021/03/28 06:55:14;;;;;;;1.02;0.93;;;4.50;99.90;;;;;;4373022;32;20499;-76
2021/03/28 06:58:01;;;;;;;1.17;1.08;;;4.50;99.90;;;;;;4385429;32;20062;-76
2021/03/28 07:00:47;;;;;;;0.30;0.30;;;4.60;99.90;;;;;;4384733;32;20066;-76
2021/03/28 07:03:37;;;;;;;0.40;0.40;;;4.50;99.90;;;;;;4374076;32;20125;-76
2021/03/28 07:06:43;;;;;;;1.05;0.90;;;4.60;99.90;;;;;;4373745;32;20449;-76
2021/03/28 07:09:48;;;;;;;2.08;1.45;;;4.80;99.90;;;;;;4375194;32;20484;-77
2021/03/28 07:12:38;;;;;;;0.30;0.30;;;4.80;99.90;;;;;;4380115;32;20077;-76
2021/03/28 07:15:19;;;;;;;1.50;1.03;;;5.00;99.90;;;;;;4400046;32;20360;-75
2021/03/28 07:18:19;;;;;;;0.40;0.40;;;5.10;99.90;;;;;;4400196;32;20074;-75
2021/03/28 07:21:06;;;;;;;0.50;0.50;;;5.20;99.90;;;;;;4388815;32;20069;-76
2021/03/28 07:24:09;;;;;;;0.40;0.40;;;5.30;99.90;;;;;;4388620;32;20421;-76
2021/03/28 07:27:07;;;;;;;0.50;0.50;;;5.40;99.90;;;;;;4387634;32;20157;-77
2021/03/28 07:29:53;;;;;;;0.50;0.50;;;5.40;99.90;;;;;;4389665;32;20098;-76
2021/03/28 07:32:41;;;;;;;0.30;0.30;;;5.40;99.90;;;;;;4399929;32;20073;-76
2021/03/28 07:35:37;;;;;;;0.47;0.47;;;5.40;99.90;;;;;;4388054;32;20488;-76
2021/03/28 07:38:24;;;;;;;0.30;0.30;;;5.50;99.90;;;;;;4389246;32;20066;-76
2021/03/28 07:41:22;;;;;;;1.65;0.95;;;5.60;99.90;;;;;;4377846;32;20154;-77
2021/03/28 07:43:58;;;;;;;0.47;0.47;;;5.80;99.90;;;;;;4389645;32;20065;-77
2021/03/28 07:46:35;;;;;;;2.92;1.20;;;5.90;99.90;;;;;;4399255;32;20531;-76
2021/03/28 07:49:41;;;;;;;0.90;0.90;;;6.10;99.90;;;;;;4399457;32;20081;-76
2021/03/28 07:52:24;;;;;;;1.45;1.15;;;6.10;99.90;;;;;;4380099;32;20066;-76
2021/03/28 07:54:58;;;;;;;0.40;0.40;;;6.30;99.90;;;;;;4400296;32;20086;-76
2021/03/28 07:57:34;;;;;;;0.40;0.40;;;6.40;99.90;;;;;;4400356;32;20089;-77
2021/03/28 08:00:21;;;;;;;3.45;1.02;;;6.60;99.90;;;;;;4399114;32;20087;-76
2021/03/28 08:03:14;;;;;;;3.00;0.50;;;6.50;99.90;;;;;;4388028;32;20381;-75
2021/03/28 08:06:12;;;;;;;0.62;0.62;;;6.60;99.90;;;;;;4390176;32;20075;-76
2021/03/28 08:09:08;;;;;;;0.60;0.60;;;6.60;99.90;;;;;;4387847;32;20511;-76
2021/03/28 08:11:53;;;;;;;1.27;1.12;;;6.80;99.90;;;;;;4373637;32;20079;-76
2021/03/28 08:14:53;;;;;;;0.50;0.50;;;7.10;99.90;;;;;;4385792;32;20062;-76
2021/03/28 08:17:38;;;;;;;0.65;0.65;;;7.10;99.90;;;;;;4374416;32;20404;-76
2021/03/28 08:20:28;;;;;;;0.50;0.50;;;7.20;99.90;;;;;;4384989;32;20121;-76
2021/03/28 08:23:21;;;;;;;0.40;0.40;;;7.20;99.90;;;;;;4373336;32;20118;-76
2021/03/28 08:26:11;;;;;;;3.78;1.65;;;7.20;99.90;;;;;;4372487;32;20079;-76
2021/03/28 08:28:51;;;;;;;0.93;0.82;;;7.30;99.90;;;;;;4384078;32;20468;-76
2021/03/28 08:31:48;;;;;;;1.50;0.77;;;7.40;99.90;;;;;;4383679;32;20063;-77
2021/03/28 08:34:35;;;;;;;0.30;0.30;;;7.50;99.90;;;;;;4374197;32;20058;-77
2021/03/28 08:37:20;;;;;;;0.60;0.60;;;7.60;99.90;;;;;;4373495;32;20086;-76
2021/03/28 08:40:03;;;;;;;0.30;0.30;;;7.80;99.90;;;;;;4383515;32;20129;-76
2021/03/28 08:42:59;;;;;;;0.45;0.45;;;8.00;99.90;;;;;;4374701;32;20070;-76
2021/03/28 08:46:04;;;;;;;0.88;0.88;;;8.10;99.90;;;;;;4376967;32;21352;-76
2021/03/28 08:48:52;;;;;;;21.12;1.05;;;8.10;99.90;;;;;;4373422;32;20453;-76
2021/03/28 08:51:57;;;;;;;0.98;0.65;;;8.00;99.90;;;;;;4373232;32;20086;-77
2021/03/28 08:55:03;;;;;;;0.43;0.43;;;7.90;99.90;;;;;;4363891;32;21001;-77
2021/03/28 08:57:54;;;;;;;27.10;0.70;;;8.20;99.90;;;;;;4363351;32;20078;-76
2021/03/28 09:00:33;;;;;;;0.30;0.30;;;8.40;99.90;;;;;;4373136;32;20069;-76
2021/03/28 09:03:38;;;;;;;0.32;0.32;;;8.40;99.90;;;;;;4383821;32;20511;-77
2021/03/28 09:06:09;;;;;;;0.60;0.57;;;8.50;99.90;;;;;;4365195;32;20472;-76
2021/03/28 09:08:49;;;;;;;1.37;0.95;;;8.70;99.90;;;;;;4383436;32;20579;-76
2021/03/28 09:11:24;;;;;;;1.08;0.85;;;8.80;99.90;;;;;;4399439;32;20511;-76
2021/03/28 09:14:04;;;;;;;0.30;0.30;;;8.90;99.90;;;;;;4398793;32;20476;-76
2021/03/28 09:17:02;;;;;;;0.35;0.35;;;8.90;99.90;;;;;;4398584;32;20069;-76
2021/03/28 09:19:49;;;;;;;1.17;1.08;;;9.10;99.90;;;;;;4389212;32;20094;-76
2021/03/28 09:22:21;;;;;;;0.40;0.40;;;9.20;99.90;;;;;;4387085;32;20078;-76
2021/03/28 09:25:13;;;;;;;0.73;0.73;;;9.30;99.90;;;;;;4398471;32;20117;-76
2021/03/28 09:27:59;;;;;;;37.35;1.10;;;9.30;99.90;;;;;;4398588;32;20090;-76
2021/03/28 09:30:54;;;;;;;0.50;0.50;;;9.50;99.90;;;;;;4398106;32;20503;-77
2021/03/28 09:33:35;;;;;;;0.30;0.30;;;9.90;99.90;;;;;;4398504;32;20131;-77
2021/03/28 09:36:29;;;;;;;1.27;0.55;;;10.20;99.90;;;;;;4398681;32;20509;-76
2021/03/28 09:39:26;;;;;;;6.68;1.25;;;9.80;99.90;;;;;;4384630;32;85813;-76
2021/03/28 09:42:08;;;;;;;0.40;0.40;;;10.00;99.90;;;;;;4388158;32;20058;-77
2021/03/28 09:44:59;;;;;;;3.05;0.90;;;10.00;99.90;;;;;;4398337;32;20086;-77
2021/03/28 09:47:35;;;;;;;0.32;0.32;;;10.10;99.90;;;;;;4386983;32;20154;-77
2021/03/28 09:50:29;;;;;;;0.30;0.30;;;10.20;99.90;;;;;;4387061;32;20078;-77
2021/03/28 09:53:27;;;;;;;0.37;0.37;;;10.40;99.90;;;;;;4386537;32;20062;-76
2021/03/28 09:56:27;;;;;;;0.20;0.20;;;10.60;99.90;;;;;;4387825;32;20133;-76
2021/03/28 09:59:14;;;;;;;12.40;2.22;;;10.70;99.90;;;;;;4386477;32;20125;-75
2021/03/28 10:02:20;;;;;;;0.88;0.60;;;10.80;99.90;;;;;;4373310;32;20099;-77
2021/03/28 10:05:09;;;;;;;2.72;0.60;;;11.00;99.90;;;;;;4378023;32;20128;-76
2021/03/28 10:08:15;;;;;;;3.70;0.77;;;11.20;99.90;;;;;;4386796;32;20090;-77
2021/03/28 10:10:56;;;;;;;0.30;0.30;;;11.00;99.90;;;;;;4367153;32;20185;-76
2021/03/28 10:13:43;;;;;;;0.65;0.65;;;11.00;99.90;;;;;;4383478;32;20058;-76
2021/03/28 10:16:17;;;;;;;1.85;0.73;;;11.00;99.90;;;;;;4372979;32;20074;-75
2021/03/28 10:19:05;;;;;;;0.52;0.52;;;11.10;99.90;;;;;;4384536;32;20058;-76
2021/03/28 10:21:57;;;;;;;0.40;0.40;;;11.40;99.90;;;;;;4373684;32;20063;-76
2021/03/28 10:25:02;;;;;;;0.60;0.60;;;11.60;99.90;;;;;;4372540;32;20071;-76
2021/03/28 10:27:57;;;;;;;1.17;0.80;;;11.40;99.90;;;;;;4363327;32;20086;-76
2021/03/28 10:30:56;;;;;;;0.43;0.43;;;11.60;99.90;;;;;;4371482;32;20079;-76
2021/03/28 10:33:44;;;;;;;1.33;0.52;;;11.60;99.90;;;;;;4371248;32;20457;-76
2021/03/28 10:36:40;;;;;;;1.08;0.77;;;11.80;99.90;;;;;;4382884;32;20066;-77
2021/03/28 10:39:27;;;;;;;0.40;0.40;;;11.90;99.90;;;;;;4371387;32;20244;-77
2021/03/28 10:42:06;;;;;;;0.55;0.55;;;12.10;99.90;;;;;;4382986;32;20373;-77
2021/03/28 10:44:53;;;;;;;0.52;0.52;;;12.40;99.90;;;;;;4383019;32;20122;-77
2021/03/28 10:47:53;;;;;;;1.00;0.68;;;12.50;99.90;;;;;;4371548;32;20079;-77
2021/03/28 10:50:23;;;;;;;0.40;0.40;;;12.50;99.90;;;;;;4373313;32;20082;-77
2021/03/28 10:53:19;;;;;;;0.55;0.55;;;12.80;99.90;;;;;;4382247;32;20078;-76
2021/03/28 10:56:13;;;;;;;3.30;1.12;;;12.90;99.90;;;;;;4370491;32;20138;-76
2021/03/28 10:58:57;;;;;;;0.40;0.40;;;12.90;99.90;;;;;;4371324;32;20436;-76
2021/03/28 11:02:03;;;;;;;3.75;0.55;;;13.00;99.90;;;;;;4382728;32;20127;-75
2021/03/28 11:05:08;;;;;;;0.62;0.62;;;12.80;99.90;;;;;;4363561;32;20066;-77
2021/03/28 11:07:56;;;;;;;0.57;0.57;;;13.10;99.90;;;;;;4363582;32;20070;-76
2021/03/28 11:10:27;;;;;;;0.50;0.50;;;13.00;99.90;;;;;;4391231;32;20133;-76
2021/03/28 11:13:32;;;;;;;0.57;0.55;;;13.00;99.90;;;;;;4398486;32;20066;-76
2021/03/28 11:16:09;;;;;;;0.37;0.37;;;13.40;99.90;;;;;;4378354;32;20062;-76
2021/03/28 11:18:53;;;;;;;0.60;0.60;;;13.70;98.30;;;;;;4397586;32;20061;-76
2021/03/28 11:21:22;;;;;;;0.50;0.50;;;14.00;98.80;;;;;;4385699;32;20455;-77
2021/03/28 11:24:27;;;;;;;0.82;0.82;;;13.70;99.30;;;;;;4386485;32;20090;-77
2021/03/28 11:27:15;;;;;;;0.43;0.43;;;14.00;98.50;;;;;;4379086;32;20124;-76
2021/03/28 11:30:20;;;;;;;0.55;0.55;;;13.60;98.70;;;;;;4400481;32;20058;-77
2021/03/28 11:32:50;;;;;;;0.40;0.40;;;13.20;99.90;;;;;;4380112;32;20077;-77
2021/03/28 11:35:40;;;;;;;0.30;0.30;;;13.20;99.80;;;;;;4399765;32;20095;-76
2021/03/28 11:38:23;;;;;;;0.40;0.40;;;13.20;99.30;;;;;;4388017;32;20085;-76
2021/03/28 11:41:11;;;;;;;0.40;0.40;;;13.30;98.60;;;;;;4385337;32;20424;-77
2021/03/28 11:43:45;;;;;;;1.15;0.85;;;13.20;98.70;;;;;;4389283;32;20463;-77
2021/03/28 11:46:33;;;;;;;0.40;0.40;;;13.10;98.60;;;;;;4399767;32;20082;-77
2021/03/28 11:49:00;;;;;;;0.40;0.40;;;13.00;99.70;;;;;;4388118;32;20626;-77
2021/03/28 11:51:38;;;;;;;12.57;1.25;;;13.20;99.90;;;;;;4399725;32;20324;-77
2021/03/28 11:54:17;;;;;;;0.50;0.45;;;13.30;99.30;;;;;;4385013;32;20074;-77
2021/03/28 11:56:55;;;;;;;0.50;0.50;;;13.20;99.30;;;;;;4399181;32;20081;-77
2021/03/28 11:59:23;;;;;;;0.40;0.40;;;13.10;99.50;;;;;;4400083;32;20118;-76
2021/03/28 12:01:59;;;;;;;1.48;0.70;;;12.90;99.30;;;;;;4385076;32;20070;-76
2021/03/28 12:04:31;;;;;;;0.40;0.40;;;12.80;99.90;;;;;;4399747;32;20073;-76
2021/03/28 12:07:13;;;;;;;0.37;0.37;;;12.80;99.90;;;;;;4385099;32;20086;-76
2021/03/28 12:09:40;;;;;;;0.35;0.35;;;12.90;99.90;;;;;;4394810;32;20139;-77
2021/03/28 12:12:33;;;;;;;0.60;0.60;;;12.80;99.90;;;;;;4384527;32;20178;-77
2021/03/28 12:15:38;;;;;;;0.60;0.47;;;12.90;99.50;;;;;;4385221;32;20078;-76
2021/03/28 12:18:26;;;;;;;1.48;0.98;;;12.80;99.90;;;;;;4381113;32;20069;-76
2021/03/28 12:21:13;;;;;;;0.30;0.30;;;12.90;98.80;;;;;;4388180;32;20117;-76
2021/03/28 12:23:59;;;;;;;0.30;0.30;;;13.00;98.90;;;;;;4388835;32;20546;-76
2021/03/28 12:26:29;;;;;;;0.35;0.35;;;13.10;98.60;;;;;;4398625;32;20091;-77
2021/03/28 12:29:02;;;;;;;0.30;0.30;;;13.00;99.00;;;;;;4400141;32;20074;-76
2021/03/28 12:31:31;;;;;;;0.45;0.45;;;12.90;99.20;;;;;;4398784;32;20066;-77
2021/03/28 12:34:21;;;;;;;5.72;0.85;;;12.90;99.80;;;;;;4399358;32;20354;-77
2021/03/28 12:36:52;;;;;;;0.40;0.40;;;13.40;99.60;;;;;;4388273;32;20066;-77
2021/03/28 12:39:24;;;;;;;0.90;0.50;;;13.70;99.10;;;;;;4398811;32;20074;-77
2021/03/28 12:42:26;;;;;;;0.45;0.40;;;13.70;99.30;;;;;;4399029;32;20089;-77
2021/03/28 12:45:15;;;;;;;0.40;0.40;;;13.80;99.30;;;;;;4387469;32;20499;-77
2021/03/28 12:47:51;;;;;;;0.40;0.40;;;14.50;98.60;;;;;;4387882;32;20069;-77
2021/03/28 12:50:23;;;;;;;0.20;0.20;;;15.40;97.60;;;;;;4398670;32;20078;-77
2021/03/28 12:53:01;;;;;;;0.35;0.32;;;15.80;96.00;;;;;;4384812;32;20086;-77
2021/03/28 12:55:34;;;;;;;9.65;1.45;;;15.60;95.90;;;;;;4399235;32;20503;-77
2021/03/28 12:58:22;;;;;;;0.57;0.57;;;15.20;96.20;;;;;;4385453;32;20077;-77
2021/03/28 13:00:50;;;;;;;1.92;0.50;;;15.70;97.00;;;;;;4399218;32;20082;-77
2021/03/28 13:03:38;;;;;;;0.70;0.62;;;16.40;94.80;;;;;;4398857;32;20117;-77
2021/03/28 13:06:16;;;;;;;2.08;0.50;;;16.00;94.60;;;;;;4387273;32;20090;-77
2021/03/28 13:08:48;;;;;;;0.35;0.35;;;16.00;95.30;;;;;;4399769;32;20062;-76
2021/03/28 13:11:14;;;;;;;0.30;0.30;;;15.70;95.40;;;;;;4398685;32;20542;-77
2021/03/28 13:13:45;;;;;;;0.55;0.55;;;15.30;96.70;;;;;;4398800;32;20086;-77
2021/03/28 13:16:29;;;;;;;2.53;1.15;;;15.10;97.20;;;;;;4399006;32;20128;-77
2021/03/28 13:18:58;;;;;;;0.30;0.30;;;14.60;97.80;;;;;;4398807;32;20558;-77
2021/03/28 13:21:29;;;;;;;0.30;0.30;;;14.30;98.70;;;;;;4399735;32;20070;-77
2021/03/28 13:24:17;;;;;;;1.95;0.75;;;14.00;99.40;;;;;;4398583;32;20162;-77
2021/03/28 13:27:03;;;;;;;0.30;0.30;;;13.70;99.90;;;;;;4399168;32;20390;-77
2021/03/28 13:29:39;;;;;;;0.30;0.30;;;13.60;99.90;;;;;;4398640;32;20480;-77
2021/03/28 13:32:18;;;;;;;0.40;0.40;;;13.50;99.90;;;;;;4399505;32;20112;-77
2021/03/28 13:34:49;;;;;;;0.50;0.50;;;13.40;99.90;;;;;;4399513;32;20470;-77
2021/03/28 13:37:32;;;;;;;;;;;13.00;99.90;;;;;;4398180;32;20524;-77
2021/03/28 13:40:05;;;;;;;0.50;0.50;;;12.80;99.90;;;;;;4397777;32;20390;-77
2021/03/28 13:42:50;;;;;;;0.60;0.60;;;12.70;99.90;;;;;;4397909;32;20122;-77
2021/03/28 13:45:19;;;;;;;0.40;0.40;;;12.60;99.90;;;;;;4398171;32;20137;-77
2021/03/28 13:47:49;;;;;;;0.80;0.62;;;12.50;99.90;;;;;;4398212;32;20388;-76
2021/03/28 13:50:33;;;;;;;0.60;0.60;;;12.50;99.90;;;;;;4397715;32;20131;-76
2021/03/28 13:53:02;;;;;;;2.10;0.98;;;12.60;99.90;;;;;;4384696;32;20075;-76
2021/03/28 13:55:49;;;;;;;1.90;0.68;;;12.40;99.90;;;;;;4396813;32;20074;-77
2021/03/28 13:58:18;;;;;;;0.30;0.30;;;12.50;99.90;;;;;;4387783;32;20057;-77
2021/03/28 14:00:48;;;;;;;0.57;0.55;;;12.30;99.90;;;;;;4398370;32;20517;-77
2021/03/28 14:03:17;;;;;;;2.45;0.75;;;12.20;99.90;;;;;;4397738;32;20429;-77
2021/03/28 14:05:45;;;;;;;0.55;0.45;;;12.20;99.90;;;;;;4398433;32;20097;-77
2021/03/28 14:08:16;;;;;;;0.52;0.52;;;12.30;99.90;;;;;;4397660;32;20073;-77
2021/03/28 14:10:46;;;;;;;0.62;0.62;;;12.30;99.90;;;;;;4386639;32;20308;-77
2021/03/28 14:13:31;;;;;;;1.47;0.87;;;12.20;99.90;;;;;;4383275;32;20440;-77
2021/03/28 14:16:02;;;;;;;1.55;0.65;;;12.30;99.90;;;;;;4384105;32;20183;-77
2021/03/28 14:18:49;;;;;;;1.30;1.08;;;12.30;99.90;;;;;;4383143;32;20075;-76
2021/03/28 14:21:23;;;;;;;0.40;0.40;;;12.20;99.90;;;;;;4371506;32;20934;-76
2021/03/28 14:24:14;;;;;;;0.37;0.37;;;12.20;99.90;;;;;;4369125;32;20058;-76
2021/03/28 14:26:45;;;;;;;0.50;0.50;;;12.40;99.90;;;;;;4370652;32;20069;-77
2021/03/28 14:29:33;;;;;;;0.30;0.30;;;12.30;99.90;;;;;;4382993;32;20091;-77